sensor_id;sensor_type;location;lat;lon;timestamp;pressure;altitude;pressure_sealevel;temperature;humidity
71956;BME280;59829;50.562;6.258;2022-12-31T00:04:33;94780.03;;;11.49;100.00
71956;BME280;59829;50.562;6.258;2022-12-31T00:14:33;94784.53;;;11.55;100.00
71956;BME280;59829;50.562;6.258;2022-12-31T00:24:33;94800.13;;;11.62;100.00
71956;BME280;59829;50.562;6.258;2022-12-31T00:34:34;94780.41;;;11.62;100.00
71956;BME280;59829;50.562;6.258;2022-12-31T00:44:35;94806.09;;;11.70;100.00
71956;BME280;59829;50.562;6.258;2022-12-31T00:54:35;94791.69;;;11.77;100.00
71956;BME280;59829;50.562;6.258;2022-12-31T01:04:35;94807.09;;;11.77;100.00
71956;BME280;59829;50.562;6.258;2022-12-31T01:14:36;94805.19;;;11.80;100.00
71956;BME280;59829;50.562;6.258;2022-12-31T01:24:36;94805.56;;;11.85;100.00
71956;BME280;59829;50.562;6.258;2022-12-31T01:34:36;94837.97;;;11.86;100.00
71956;BME280;59829;50.562;6.258;2022-12-31T01:54:41;94838.78;;;11.94;100.00
71956;BME280;59829;50.562;6.258;2022-12-31T02:04:43;94839.78;;;12.01;100.00
71956;BME280;59829;50.562;6.258;2022-12-31T02:14:47;94847.97;;;12.05;100.00
71956;BME280;59829;50.562;6.258;2022-12-31T02:35:28;94873.19;;;12.10;100.00
71956;BME280;59829;50.562;6.258;2022-12-31T02:46:15;94864.03;;;12.07;100.00
71956;BME280;59829;50.562;6.258;2022-12-31T02:56:22;94860.19;;;12.11;100.00
71956;BME280;59829;50.562;6.258;2022-12-31T03:06:25;94892.31;;;12.15;100.00
71956;BME280;59829;50.562;6.258;2022-12-31T03:16:26;94892.97;;;12.17;100.00
71956;BME280;59829;50.562;6.258;2022-12-31T03:26:26;94908.38;;;12.17;100.00
71956;BME280;59829;50.562;6.258;2022-12-31T03:36:26;94923.31;;;12.22;100.00
71956;BME280;59829;50.562;6.258;2022-12-31T03:46:26;94908.41;;;12.25;100.00
71956;BME280;59829;50.562;6.258;2022-12-31T03:56:27;94898.63;;;12.29;100.00
71956;BME280;59829;50.562;6.258;2022-12-31T04:06:27;94878.88;;;12.29;100.00
71956;BME280;59829;50.562;6.258;2022-12-31T04:16:27;94900.06;;;12.31;100.00
71956;BME280;59829;50.562;6.258;2022-12-31T04:26:28;94911.13;;;12.32;100.00
71956;BME280;59829;50.562;6.258;2022-12-31T04:36:28;94934.47;;;12.38;100.00
71956;BME280;59829;50.562;6.258;2022-12-31T04:46:30;94933.81;;;12.45;100.00
71956;BME280;59829;50.562;6.258;2022-12-31T04:56:31;94940.25;;;12.49;100.00
71956;BME280;59829;50.562;6.258;2022-12-31T05:06:32;94953.78;;;12.51;100.00
71956;BME280;59829;50.562;6.258;2022-12-31T05:16:32;94980.75;;;12.55;100.00
71956;BME280;59829;50.562;6.258;2022-12-31T05:26:32;94979.50;;;12.59;100.00
71956;BME280;59829;50.562;6.258;2022-12-31T05:36:33;94933.88;;;12.61;100.00
71956;BME280;59829;50.562;6.258;2022-12-31T05:46:33;94953.31;;;12.63;100.00
71956;BME280;59829;50.562;6.258;2022-12-31T05:56:34;94966.00;;;12.65;100.00
71956;BME280;59829;50.562;6.258;2022-12-31T06:06:34;94977.63;;;12.69;100.00
71956;BME280;59829;50.562;6.258;2022-12-31T06:16:35;94991.09;;;12.71;100.00
71956;BME280;59829;50.562;6.258;2022-12-31T06:26:35;95004.59;;;12.73;100.00
71956;BME280;59829;50.562;6.258;2022-12-31T06:36:36;94998.34;;;12.76;100.00
71956;BME280;59829;50.562;6.258;2022-12-31T06:46:36;95012.66;;;12.78;100.00
71956;BME280;59829;50.562;6.258;2022-12-31T06:56:36;95012.66;;;12.78;100.00
71956;BME280;59829;50.562;6.258;2022-12-31T07:06:43;95010.72;;;12.80;100.00
71956;BME280;59829;50.562;6.258;2022-12-31T07:38:03;95037.38;;;12.79;100.00
71956;BME280;59829;50.562;6.258;2022-12-31T07:48:20;95036.09;;;12.83;100.00
71956;BME280;59829;50.562;6.258;2022-12-31T07:58:26;95063.44;;;12.84;100.00
71956;BME280;59829;50.562;6.258;2022-12-31T08:08:35;95029.56;;;12.89;100.00
71956;BME280;59829;50.562;6.258;2022-12-31T08:18:40;95046.09;;;12.86;100.00
71956;BME280;59829;50.562;6.258;2022-12-31T08:28:53;95064.44;;;12.91;100.00
71956;BME280;59829;50.562;6.258;2022-12-31T08:39:15;95067.16;;;12.90;100.00
71956;BME280;59829;50.562;6.258;2022-12-31T08:49:22;95069.88;;;12.88;100.00
71956;BME280;59829;50.562;6.258;2022-12-31T09:09:39;95086.50;;;13.02;100.00
71956;BME280;59829;50.562;6.258;2022-12-31T09:19:43;95083.78;;;13.04;100.00
71956;BME280;59829;50.562;6.258;2022-12-31T09:29:58;95108.06;;;13.09;100.00
71956;BME280;59829;50.562;6.258;2022-12-31T09:40:18;95139.09;;;13.16;100.00
71956;BME280;59829;50.562;6.258;2022-12-31T10:01:16;95161.50;;;13.23;100.00
71956;BME280;59829;50.562;6.258;2022-12-31T10:11:39;95175.00;;;13.25;100.00
71956;BME280;59829;50.562;6.258;2022-12-31T10:22:06;95185.47;;;13.32;100.00
71956;BME280;59829;50.562;6.258;2022-12-31T10:32:18;95194.16;;;13.31;100.00
71956;BME280;59829;50.562;6.258;2022-12-31T11:23:38;95179.06;;;13.36;100.00
71956;BME280;59829;50.562;6.258;2022-12-31T11:34:07;95212.22;;;13.39;100.00
71956;BME280;59829;50.562;6.258;2022-12-31T11:44:34;95205.00;;;13.43;100.00
71956;BME280;59829;50.562;6.258;2022-12-31T12:04:57;95193.91;;;13.42;100.00
71956;BME280;59829;50.562;6.258;2022-12-31T12:14:58;95189.41;;;13.44;100.00
71956;BME280;59829;50.562;6.258;2022-12-31T12:25:09;95211.59;;;13.45;100.00
71956;BME280;59829;50.562;6.258;2022-12-31T12:35:15;95226.22;;;13.45;100.00
71956;BME280;59829;50.562;6.258;2022-12-31T12:45:21;95219.63;;;13.42;100.00
71956;BME280;59829;50.562;6.258;2022-12-31T12:55:43;95217.88;;;13.43;100.00
71956;BME280;59829;50.562;6.258;2022-12-31T13:16:10;95225.72;;;13.41;100.00
71956;BME280;59829;50.562;6.258;2022-12-31T13:26:23;95217.06;;;13.42;100.00
71956;BME280;59829;50.562;6.258;2022-12-31T13:36:27;95202.91;;;13.46;100.00
71956;BME280;59829;50.562;6.258;2022-12-31T13:46:40;95207.25;;;13.46;100.00
71956;BME280;59829;50.562;6.258;2022-12-31T13:56:44;95222.50;;;13.39;100.00
71956;BME280;59829;50.562;6.258;2022-12-31T14:06:54;95200.97;;;13.40;100.00
71956;BME280;59829;50.562;6.258;2022-12-31T14:27:33;95188.69;;;13.34;100.00
71956;BME280;59829;50.562;6.258;2022-12-31T14:58:36;95219.84;;;13.23;100.00
71956;BME280;59829;50.562;6.258;2022-12-31T15:39:37;95216.34;;;13.06;100.00
71956;BME280;59829;50.562;6.258;2022-12-31T15:49:40;95224.81;;;12.98;100.00
71956;BME280;59829;50.562;6.258;2022-12-31T15:59:42;95237.00;;;12.96;100.00
71956;BME280;59829;50.562;6.258;2022-12-31T16:09:48;95247.91;;;12.90;100.00
71956;BME280;59829;50.562;6.258;2022-12-31T16:19:50;95251.44;;;12.89;100.00
71956;BME280;59829;50.562;6.258;2022-12-31T16:30:21;95249.31;;;12.85;100.00
71956;BME280;59829;50.562;6.258;2022-12-31T16:40:22;95264.22;;;12.81;100.00
71956;BME280;59829;50.562;6.258;2022-12-31T16:50:24;95252.25;;;12.72;100.00
71956;BME280;59829;50.562;6.258;2022-12-31T17:00:25;95251.91;;;12.67;100.00
71956;BME280;59829;50.562;6.258;2022-12-31T17:10:33;95240.28;;;12.63;100.00
71956;BME280;59829;50.562;6.258;2022-12-31T17:20:33;95227.09;;;12.58;100.00
71956;BME280;59829;50.562;6.258;2022-12-31T17:30:37;95218.72;;;12.56;100.00
71956;BME280;59829;50.562;6.258;2022-12-31T17:40:39;95200.41;;;12.51;100.00
71956;BME280;59829;50.562;6.258;2022-12-31T17:50:51;95210.66;;;12.51;100.00
71956;BME280;59829;50.562;6.258;2022-12-31T18:00:52;95200.66;;;12.48;100.00
71956;BME280;59829;50.562;6.258;2022-12-31T18:10:53;95210.94;;;12.48;100.00
71956;BME280;59829;50.562;6.258;2022-12-31T18:21:05;95211.84;;;12.38;100.00
71956;BME280;59829;50.562;6.258;2022-12-31T18:31:15;95209.63;;;12.44;100.00
71956;BME280;59829;50.562;6.258;2022-12-31T18:41:25;95206.72;;;12.38;100.00
71956;BME280;59829;50.562;6.258;2022-12-31T18:51:27;95199.31;;;12.35;100.00
71956;BME280;59829;50.562;6.258;2022-12-31T19:01:36;95184.03;;;12.34;100.00
71956;BME280;59829;50.562;6.258;2022-12-31T19:11:38;95181.09;;;12.29;100.00
71956;BME280;59829;50.562;6.258;2022-12-31T19:21:39;95180.59;;;12.25;100.00
71956;BME280;59829;50.562;6.258;2022-12-31T19:31:40;95191.44;;;12.19;100.00
71956;BME280;59829;50.562;6.258;2022-12-31T19:41:42;95198.84;;;12.22;100.00
71956;BME280;59829;50.562;6.258;2022-12-31T19:51:42;95208.47;;;12.20;100.00
71956;BME280;59829;50.562;6.258;2022-12-31T20:01:43;95230.13;;;12.18;99.20
71956;BME280;59829;50.562;6.258;2022-12-31T20:11:43;95216.19;;;12.20;98.99
71956;BME280;59829;50.562;6.258;2022-12-31T20:21:43;95230.69;;;12.12;97.90
71956;BME280;59829;50.562;6.258;2022-12-31T20:31:44;95250.13;;;12.14;97.92
71956;BME280;59829;50.562;6.258;2022-12-31T20:41:44;95243.38;;;12.13;97.82
71956;BME280;59829;50.562;6.258;2022-12-31T20:51:44;95257.00;;;12.14;98.31
71956;BME280;59829;50.562;6.258;2022-12-31T21:01:45;95269.34;;;12.10;97.38
71956;BME280;59829;50.562;6.258;2022-12-31T21:11:45;95274.97;;;12.14;97.58
71956;BME280;59829;50.562;6.258;2022-12-31T21:22:04;95287.97;;;12.12;97.38
71956;BME280;59829;50.562;6.258;2022-12-31T21:32:04;95306.91;;;12.11;97.74
71956;BME280;59829;50.562;6.258;2022-12-31T21:42:05;95306.59;;;12.14;97.42
71956;BME280;59829;50.562;6.258;2022-12-31T21:52:05;95313.38;;;12.15;97.61
71956;BME280;59829;50.562;6.258;2022-12-31T22:02:24;95328.25;;;12.12;97.14
71956;BME280;59829;50.562;6.258;2022-12-31T22:12:43;95324.06;;;12.11;96.84
71956;BME280;59829;50.562;6.258;2022-12-31T22:22:43;95310.41;;;12.10;97.13
71956;BME280;59829;50.562;6.258;2022-12-31T22:32:43;95327.72;;;12.08;96.48
71956;BME280;59829;50.562;6.258;2022-12-31T22:42:44;95339.75;;;12.07;96.40
71956;BME280;59829;50.562;6.258;2022-12-31T22:52:44;95344.75;;;12.09;96.19
71956;BME280;59829;50.562;6.258;2022-12-31T23:02:44;95341.50;;;12.07;95.99
71956;BME280;59829;50.562;6.258;2022-12-31T23:12:45;95341.50;;;12.07;93.59
71956;BME280;59829;50.562;6.258;2022-12-31T23:22:45;95360.72;;;12.03;94.76
71956;BME280;59829;50.562;6.258;2022-12-31T23:33:05;95352.66;;;11.98;94.05
71956;BME280;59829;50.562;6.258;2022-12-31T23:43:07;95358.03;;;11.95;93.48
71956;BME280;59829;50.562;6.258;2022-12-31T23:53:09;95368.06;;;11.88;93.36
